createdAt,value
2018-11-21T00:02:18.405Z,10.07
2018-11-21T00:04:58.085Z,10.53
2018-11-21T00:07:26.840Z,9.03
2018-11-21T00:10:12.162Z,10.27
2018-11-21T00:12:49.054Z,9.87
2018-11-21T00:15:37.353Z,9.90
2018-11-21T00:18:07.796Z,9.60
2018-11-21T00:20:36.500Z,11.63
2018-11-21T00:23:15.086Z,9.93
2018-11-21T00:25:46.633Z,9.93
2018-11-21T00:28:18.223Z,10.50
2018-11-21T00:30:49.172Z,10.70
2018-11-21T00:33:20.917Z,10.53
2018-11-21T00:35:58.557Z,9.17
2018-11-21T00:38:30.130Z,9.73
2018-11-21T00:41:00.841Z,10.37
2018-11-21T00:43:33.585Z,10.40
2018-11-21T00:46:02.363Z,10.10
2018-11-21T00:48:36.917Z,10.87
2018-11-21T00:51:05.431Z,11.07
2018-11-21T00:53:36.157Z,11.27
2018-11-21T00:56:19.252Z,11.17
2018-11-21T00:58:59.716Z,10.00
2018-11-21T01:01:31.343Z,10.37
2018-11-21T01:04:00.808Z,10.30
2018-11-21T01:06:29.473Z,10.20
2018-11-21T01:08:59.111Z,10.80
2018-11-21T01:11:27.649Z,10.87
2018-11-21T01:14:08.259Z,10.17
2018-11-21T01:16:55.561Z,10.83
2018-11-21T01:19:24.045Z,10.70
2018-11-21T01:21:58.466Z,10.63
2018-11-21T01:24:38.103Z,11.37
2018-11-21T01:27:07.728Z,10.77
2018-11-21T01:29:51.176Z,10.30
2018-11-21T01:32:22.268Z,10.10
2018-11-21T01:34:51.839Z,10.80
2018-11-21T01:37:38.495Z,10.20
2018-11-21T01:40:08.966Z,11.17
2018-11-21T01:42:38.355Z,9.90
2018-11-21T01:45:14.900Z,10.17
2018-11-21T01:48:00.740Z,11.10
2018-11-21T01:50:35.956Z,11.10
2018-11-21T01:53:16.799Z,8.63
2018-11-21T01:56:02.516Z,10.83
2018-11-21T01:58:40.131Z,9.13
2018-11-21T02:01:18.585Z,10.10
2018-11-21T02:03:48.151Z,11.53
2018-11-21T02:06:16.847Z,10.53
2018-11-21T02:08:47.962Z,11.97
2018-11-21T02:11:34.702Z,9.60
2018-11-21T02:14:10.319Z,10.97
2018-11-21T02:16:39.004Z,11.13
2018-11-21T02:19:10.527Z,11.40
2018-11-21T02:21:40.873Z,11.17
2018-11-21T02:24:16.133Z,11.23
2018-11-21T02:26:51.335Z,11.77
2018-11-21T02:32:48.588Z,8.57
2018-11-21T02:35:32.645Z,10.37
2018-11-21T02:38:29.518Z,11.67
2018-11-21T02:40:58.024Z,10.97
2018-11-21T02:43:26.696Z,11.23
2018-11-21T02:45:55.407Z,11.30
2018-11-21T02:48:24.036Z,11.50
2018-11-21T02:50:54.375Z,11.37
2018-11-21T02:53:29.226Z,10.20
2018-11-21T02:56:19.002Z,12.30
2018-11-21T02:58:49.819Z,11.53
2018-11-21T03:01:19.541Z,11.30
2018-11-21T03:04:02.473Z,11.50
2018-11-21T03:06:34.079Z,11.67
2018-11-21T03:09:10.503Z,11.63
2018-11-21T03:11:43.185Z,10.40
2018-11-21T03:14:22.650Z,12.20
2018-11-21T03:17:02.215Z,10.97
2018-11-21T03:19:38.425Z,11.90
2018-11-21T03:22:10.061Z,10.63
2018-11-21T03:24:38.676Z,11.30
2018-11-21T03:27:10.225Z,10.63
2018-11-21T03:29:41.797Z,11.20
2018-11-21T03:32:34.456Z,11.17
2018-11-21T03:35:02.942Z,11.70
2018-11-21T03:37:34.581Z,10.80
2018-11-21T03:40:07.878Z,11.47
2018-11-21T03:42:36.381Z,11.73
2018-11-21T03:45:08.979Z,12.03
2018-11-21T03:47:37.412Z,11.83
2018-11-21T03:50:08.294Z,11.60
2018-11-21T03:52:36.967Z,11.97
2018-11-21T03:55:06.272Z,13.00
2018-11-21T03:57:42.851Z,11.50
2018-11-21T04:00:14.410Z,12.00
2018-11-21T04:02:45.907Z,11.80
2018-11-21T04:05:17.474Z,12.07
2018-11-21T04:07:51.069Z,12.93
2018-11-21T04:10:21.100Z,11.97
2018-11-21T04:13:03.624Z,13.07
2018-11-21T04:15:35.120Z,12.70
2018-11-21T04:18:08.752Z,12.47
2018-11-21T04:20:43.149Z,12.43
2018-11-21T04:23:23.216Z,11.87
2018-11-21T04:25:52.878Z,12.80
2018-11-21T04:28:27.298Z,12.57
2018-11-21T04:31:05.094Z,12.90
2018-11-21T04:33:45.928Z,12.37
2018-11-21T04:36:15.433Z,11.60
2018-11-21T04:38:46.414Z,12.13
2018-11-21T04:41:27.182Z,12.40
2018-11-21T04:43:55.953Z,12.13
2018-11-21T04:46:24.500Z,12.77
2018-11-21T04:48:53.267Z,12.97
2018-11-21T04:51:28.017Z,13.20
2018-11-21T04:54:06.231Z,12.97
2018-11-21T04:56:40.972Z,12.07
2018-11-21T04:59:15.839Z,11.43
2018-11-21T05:02:08.841Z,13.30
2018-11-21T05:04:43.514Z,12.37
2018-11-21T05:07:17.909Z,12.63
2018-11-21T05:09:48.927Z,12.17
2018-11-21T05:12:20.847Z,13.27
2018-11-21T05:14:49.281Z,12.50
2018-11-21T05:17:18.014Z,12.23
2018-11-21T05:19:47.483Z,12.70
2018-11-21T05:22:19.061Z,12.83
2018-11-21T05:24:47.743Z,12.67
2018-11-21T05:27:26.140Z,13.20
2018-11-21T05:29:57.781Z,13.07
2018-11-21T05:32:30.863Z,12.70
2018-11-21T05:35:08.689Z,13.63
2018-11-21T05:37:39.721Z,13.43
2018-11-21T05:40:14.261Z,13.83
2018-11-21T05:42:42.966Z,13.37
2018-11-21T05:45:31.136Z,13.70
2018-11-21T05:48:08.905Z,12.53
2018-11-21T05:50:37.311Z,14.57
2018-11-21T05:53:14.293Z,12.77
2018-11-21T05:55:49.066Z,13.73
2018-11-21T05:58:18.531Z,13.50
2018-11-21T06:00:49.223Z,14.97
2018-11-21T06:03:31.031Z,12.93
2018-11-21T06:06:09.925Z,13.87
2018-11-21T06:08:41.539Z,13.87
2018-11-21T06:11:16.765Z,13.80
2018-11-21T06:13:49.868Z,13.33
2018-11-21T06:16:23.814Z,13.50
2018-11-21T06:18:56.853Z,13.67
2018-11-21T06:21:25.449Z,14.30
2018-11-21T06:24:02.734Z,13.07
2018-11-21T06:26:31.101Z,13.73
2018-11-21T06:28:59.738Z,12.30
2018-11-21T06:31:40.284Z,11.80
2018-11-21T06:34:15.854Z,13.73
2018-11-21T06:36:55.676Z,12.47
2018-11-21T06:39:36.290Z,13.10
2018-11-21T06:42:08.974Z,13.03
2018-11-21T06:44:37.694Z,13.00
2018-11-21T06:47:08.699Z,12.87
2018-11-21T06:49:49.384Z,14.53
2018-11-21T06:52:31.962Z,13.30
2018-11-21T06:55:09.705Z,14.70
2018-11-21T06:57:40.498Z,14.03
2018-11-21T07:00:27.783Z,13.93
2018-11-21T07:02:56.225Z,13.00
2018-11-21T07:05:30.641Z,14.67
2018-11-21T07:08:02.070Z,14.10
2018-11-21T07:10:36.610Z,13.77
2018-11-21T07:13:18.700Z,12.67
2018-11-21T07:15:49.172Z,13.40
2018-11-21T07:18:24.448Z,13.63
2018-11-21T07:21:00.040Z,15.43
2018-11-21T07:23:29.566Z,14.50
2018-11-21T07:26:15.657Z,14.93
2018-11-21T07:28:45.494Z,15.20
2018-11-21T07:31:25.912Z,12.93
2018-11-21T07:34:11.912Z,14.77
2018-11-21T07:36:52.807Z,13.80
2018-11-21T07:39:27.636Z,14.60
2018-11-21T07:41:59.613Z,14.70
2018-11-21T07:44:30.345Z,14.00
2018-11-21T07:46:59.045Z,13.53
2018-11-21T07:49:34.665Z,15.13
2018-11-21T07:52:05.611Z,14.57
2018-11-21T07:54:34.207Z,15.17
2018-11-21T07:57:51.296Z,14.90
2018-11-21T08:01:01.078Z,15.03
2018-11-21T08:03:46.160Z,12.83
2018-11-21T08:06:34.197Z,14.17
2018-11-21T08:09:36.020Z,14.33
2018-11-21T08:12:18.931Z,13.90
2018-11-21T08:15:39.835Z,14.47
2018-11-21T08:18:30.838Z,13.60
2018-11-21T08:21:38.302Z,13.47
2018-11-21T08:24:20.265Z,13.63
2018-11-21T08:27:26.016Z,13.83
2018-11-21T08:29:54.687Z,15.43
2018-11-21T08:32:29.039Z,14.40
2018-11-21T08:35:01.827Z,14.77
2018-11-21T08:37:33.668Z,14.40
2018-11-21T08:40:11.097Z,14.73
2018-11-21T08:42:45.816Z,13.80
2018-11-21T08:45:31.687Z,13.70
2018-11-21T08:48:01.438Z,14.20
2018-11-21T08:50:30.027Z,14.97
2018-11-21T08:53:02.356Z,13.73
2018-11-21T08:55:31.390Z,14.07
2018-11-21T08:58:01.114Z,14.17
2018-11-21T09:00:32.160Z,15.27
2018-11-21T09:03:00.878Z,14.13
2018-11-21T09:05:31.969Z,13.60
2018-11-21T09:08:00.738Z,14.90
2018-11-21T09:10:40.652Z,14.33
2018-11-21T09:13:16.441Z,14.47
2018-11-21T09:15:47.192Z,14.87
2018-11-21T09:18:16.516Z,14.47
2018-11-21T09:20:45.569Z,14.30
2018-11-21T09:23:15.425Z,13.80
2018-11-21T09:25:44.076Z,15.20
2018-11-21T09:28:12.602Z,14.70
2018-11-21T09:30:51.185Z,14.20
2018-11-21T09:33:22.161Z,15.80
2018-11-21T09:35:50.691Z,14.97
2018-11-21T09:38:25.737Z,14.60
2018-11-21T09:40:55.465Z,15.27
2018-11-21T09:43:24.195Z,14.50
2018-11-21T09:45:52.715Z,12.87
2018-11-21T09:48:31.379Z,15.53
2018-11-21T09:51:11.338Z,15.63
2018-11-21T09:53:41.787Z,15.50
2018-11-21T09:56:13.564Z,13.50
2018-11-21T09:58:49.360Z,15.27
2018-11-21T10:01:54.527Z,14.13
2018-11-21T10:04:32.395Z,14.57
2018-11-21T10:07:06.889Z,15.93
2018-11-21T10:09:43.129Z,14.90
2018-11-21T10:12:13.999Z,15.33
2018-11-21T10:14:43.956Z,14.43
2018-11-21T10:17:12.539Z,14.80
2018-11-21T10:19:52.223Z,15.43
2018-11-21T10:22:33.098Z,15.57
2018-11-21T10:25:07.799Z,15.20
2018-11-21T10:27:37.595Z,14.73
2018-11-21T10:30:06.219Z,14.10
2018-11-21T10:32:41.060Z,15.07
2018-11-21T10:35:10.036Z,15.50
2018-11-21T10:37:39.738Z,14.37
2018-11-21T10:40:12.941Z,15.70
2018-11-21T10:42:41.465Z,15.20
2018-11-21T10:45:17.139Z,15.67
2018-11-21T10:47:47.999Z,15.33
2018-11-21T10:50:17.176Z,15.07
2018-11-21T10:52:45.928Z,16.87
2018-11-21T10:55:21.276Z,18.37
2018-11-21T10:57:50.534Z,15.37
2018-11-21T11:00:36.742Z,15.23
2018-11-21T11:03:18.042Z,15.83
2018-11-21T11:06:25.809Z,15.53
2018-11-21T11:09:28.628Z,12.30
2018-11-21T11:12:14.806Z,15.30
2018-11-21T11:15:01.436Z,14.20
2018-11-21T11:17:59.513Z,15.67
2018-11-21T11:21:08.499Z,16.90
2018-11-21T11:23:54.816Z,14.80
2018-11-21T11:26:47.603Z,15.37
2018-11-21T11:29:35.184Z,15.63
2018-11-21T11:32:43.003Z,16.07
2018-11-21T11:35:38.951Z,15.63
2018-11-21T11:38:19.497Z,15.77
2018-11-21T11:41:12.739Z,16.23
2018-11-21T11:44:12.259Z,14.87
2018-11-21T11:46:55.354Z,15.83
2018-11-21T11:50:02.317Z,15.10
2018-11-21T11:52:52.763Z,15.93
2018-11-21T11:55:41.805Z,15.07
2018-11-21T11:58:45.244Z,15.60
2018-11-21T12:01:33.987Z,15.07
2018-11-21T12:04:36.653Z,15.33
2018-11-21T12:07:47.236Z,15.63
2018-11-21T12:11:01.208Z,14.80
2018-11-21T12:13:50.863Z,16.63
2018-11-21T12:16:53.593Z,15.93
2018-11-21T12:19:54.269Z,16.07
2018-11-21T12:22:57.023Z,15.33
2018-11-21T12:25:46.407Z,15.43
2018-11-21T12:28:45.995Z,15.93
2018-11-21T12:31:43.640Z,15.00
2018-11-21T12:34:57.529Z,15.10
2018-11-21T12:37:54.039Z,15.43
2018-11-21T12:41:00.589Z,16.30
2018-11-21T12:44:06.499Z,17.50
2018-11-21T12:47:11.422Z,17.03
2018-11-21T12:49:54.154Z,16.90
2018-11-21T12:52:47.964Z,15.80
2018-11-21T12:55:54.036Z,17.00
2018-11-21T12:58:37.668Z,15.00
2018-11-21T13:01:46.440Z,15.47
2018-11-21T13:04:50.004Z,16.23
2018-11-21T13:07:46.510Z,16.17
2018-11-21T13:10:31.024Z,16.10
2018-11-21T13:13:37.111Z,15.37
2018-11-21T13:16:25.757Z,15.23
2018-11-21T13:19:16.831Z,15.67
2018-11-21T13:22:35.294Z,16.03
2018-11-21T13:25:26.338Z,15.67
2018-11-21T13:28:45.369Z,15.67
2018-11-21T13:31:33.272Z,16.37
2018-11-21T13:34:28.107Z,15.27
2018-11-21T13:37:16.716Z,15.33
2018-11-21T13:40:18.747Z,16.13
2018-11-21T13:43:12.869Z,15.37
2018-11-21T13:46:06.979Z,14.17
2018-11-21T13:49:00.818Z,16.03
2018-11-21T13:51:54.443Z,14.93
2018-11-21T13:54:47.515Z,16.07
2018-11-21T13:57:22.189Z,15.43
2018-11-21T13:59:50.957Z,14.47
2018-11-21T14:02:25.776Z,15.80
2018-11-21T14:04:54.747Z,14.47
2018-11-21T14:07:25.277Z,14.97
2018-11-21T14:09:57.379Z,15.77
2018-11-21T14:12:38.417Z,14.50
2018-11-21T14:15:13.022Z,15.80
2018-11-21T14:17:41.646Z,17.07
2018-11-21T14:20:13.637Z,15.33
2018-11-21T14:22:50.507Z,14.90
2018-11-21T14:25:26.577Z,12.87
2018-11-21T14:28:01.104Z,15.47
2018-11-21T14:30:31.116Z,15.07
2018-11-21T14:33:06.023Z,15.00
2018-11-21T14:35:36.168Z,15.07
2018-11-21T14:38:04.710Z,14.97
2018-11-21T14:40:33.343Z,13.97
2018-11-21T14:43:02.952Z,15.90
2018-11-21T14:45:56.102Z,18.57
2018-11-21T14:48:31.775Z,16.67
2018-11-21T14:51:02.619Z,17.07
2018-11-21T14:53:36.934Z,15.80
2018-11-21T14:56:07.838Z,14.43
2018-11-21T14:58:37.289Z,14.90
2018-11-21T15:01:06.162Z,13.80
2018-11-21T15:03:53.596Z,14.87
2018-11-21T15:06:22.216Z,13.90
2018-11-21T15:08:50.752Z,15.03
2018-11-21T15:11:24.385Z,14.73
2018-11-21T15:13:55.362Z,14.77
2018-11-21T15:16:23.886Z,14.90
2018-11-21T15:18:59.470Z,14.73
2018-11-21T15:21:30.196Z,14.30
2018-11-21T15:24:01.185Z,15.37
2018-11-21T15:26:32.709Z,15.63
2018-11-21T15:29:01.201Z,13.83
2018-11-21T15:31:32.790Z,15.33
2018-11-21T15:34:03.562Z,14.83
2018-11-21T15:36:32.522Z,15.57
2018-11-21T15:39:02.137Z,13.93
2018-11-21T15:41:36.552Z,15.47
2018-11-21T15:44:10.913Z,14.73
2018-11-21T15:46:50.243Z,15.70
2018-11-21T15:49:19.760Z,14.80
2018-11-21T15:51:50.506Z,15.70
2018-11-21T15:54:25.236Z,15.33
2018-11-21T15:56:54.913Z,15.17
2018-11-21T15:59:23.723Z,16.57
2018-11-21T16:01:52.202Z,15.60
2018-11-21T16:04:27.875Z,15.50
2018-11-21T16:07:14.771Z,15.23
2018-11-21T16:09:43.707Z,16.13
2018-11-21T16:12:21.180Z,16.10
2018-11-21T16:14:50.940Z,15.40
2018-11-21T16:17:21.681Z,14.53
2018-11-21T16:19:51.071Z,15.90
2018-11-21T16:22:28.391Z,16.93
2018-11-21T16:24:59.963Z,17.23
2018-11-21T16:27:31.003Z,16.30
2018-11-21T16:30:02.657Z,15.93
2018-11-21T16:32:33.454Z,16.60
2018-11-21T16:35:09.817Z,16.60
2018-11-21T16:37:45.189Z,16.77
2018-11-21T16:40:33.541Z,16.73
2018-11-21T16:43:10.911Z,15.70
2018-11-21T16:45:44.161Z,16.10
2018-11-21T16:48:12.691Z,15.40
2018-11-21T16:50:41.291Z,15.33
2018-11-21T16:53:14.144Z,16.20
2018-11-21T16:55:45.571Z,15.10
2018-11-21T16:58:15.956Z,15.63
2018-11-21T17:00:44.605Z,14.97
2018-11-21T17:03:16.195Z,15.93
2018-11-21T17:05:49.624Z,16.00
2018-11-21T17:08:25.073Z,14.73
2018-11-21T17:11:02.730Z,14.93
2018-11-21T17:13:34.723Z,14.60
2018-11-21T17:16:03.834Z,14.83
2018-11-21T17:18:32.534Z,14.33
2018-11-21T17:21:01.169Z,13.57
2018-11-21T17:23:37.879Z,14.53
2018-11-21T17:26:12.177Z,14.80
2018-11-21T17:28:52.278Z,15.13
2018-11-21T17:31:24.796Z,14.43
2018-11-21T17:33:54.220Z,15.47
2018-11-21T17:36:35.435Z,15.03
2018-11-21T17:39:07.944Z,14.70
2018-11-21T17:41:36.616Z,14.83
2018-11-21T17:44:08.786Z,14.50
2018-11-21T17:46:38.527Z,13.90
2018-11-21T17:49:07.424Z,14.93
2018-11-21T17:51:50.172Z,14.33
2018-11-21T17:54:18.789Z,14.43
2018-11-21T17:56:50.339Z,13.90
2018-11-21T17:59:24.057Z,15.47
2018-11-21T18:01:53.495Z,14.87
2018-11-21T18:04:27.995Z,15.60
2018-11-21T18:07:05.885Z,14.77
2018-11-21T18:09:50.188Z,15.97
2018-11-21T18:12:30.793Z,14.83
2018-11-21T18:15:17.651Z,15.60
2018-11-21T18:17:47.227Z,15.73
2018-11-21T18:20:16.347Z,15.23
2018-11-21T18:22:59.177Z,14.23
2018-11-21T18:25:33.519Z,14.77
2018-11-21T18:28:02.367Z,14.53
2018-11-21T18:30:49.639Z,15.07
2018-11-21T18:33:22.403Z,16.03
2018-11-21T18:35:57.815Z,16.63
2018-11-21T18:38:55.836Z,15.27
2018-11-21T18:41:40.185Z,15.73
2018-11-21T18:44:08.975Z,14.83
2018-11-21T18:46:38.427Z,15.07
2018-11-21T18:49:10.068Z,14.43
2018-11-21T18:51:39.513Z,14.70
2018-11-21T18:54:17.216Z,15.47
2018-11-21T18:57:13.425Z,15.30
2018-11-21T19:00:12.029Z,15.47
2018-11-21T19:02:46.423Z,16.20
2018-11-21T19:05:20.405Z,14.80
2018-11-21T19:08:06.632Z,14.10
2018-11-21T19:10:36.201Z,15.13
2018-11-21T19:13:05.148Z,14.90
2018-11-21T19:15:49.269Z,14.50
2018-11-21T19:18:21.407Z,15.57
2018-11-21T19:20:50.219Z,14.00
2018-11-21T19:23:19.820Z,16.07
2018-11-21T19:25:51.618Z,14.80
2018-11-21T19:28:22.692Z,14.00
2018-11-21T19:30:52.273Z,14.53
2018-11-21T19:33:21.406Z,14.17
2018-11-21T19:35:49.862Z,14.77
2018-11-21T19:38:18.340Z,14.10
2018-11-21T19:40:47.042Z,13.73
2018-11-21T19:43:15.767Z,14.33
2018-11-21T19:45:57.474Z,14.23
2018-11-21T19:48:35.263Z,14.50
2018-11-21T19:51:20.752Z,15.03
2018-11-21T19:53:57.516Z,14.00
2018-11-21T19:56:26.598Z,15.13
2018-11-21T19:58:55.392Z,14.93
2018-11-21T20:01:29.770Z,14.70
2018-11-21T20:04:01.381Z,14.20
2018-11-21T20:06:35.002Z,14.13
2018-11-21T20:09:16.227Z,14.93
2018-11-21T20:11:56.129Z,14.73
2018-11-21T20:14:27.628Z,14.83
2018-11-21T20:17:02.213Z,13.83
2018-11-21T20:19:35.256Z,13.60
2018-11-21T20:22:06.010Z,14.63
2018-11-21T20:24:41.633Z,15.30
2018-11-21T20:27:11.111Z,15.23
2018-11-21T20:29:47.890Z,14.37
2018-11-21T20:32:33.907Z,13.80
2018-11-21T20:35:07.966Z,14.30
2018-11-21T20:37:34.625Z,14.80
2018-11-21T20:40:11.835Z,14.17
2018-11-21T20:42:41.759Z,13.93
2018-11-21T20:45:24.705Z,14.27
2018-11-21T20:47:56.423Z,13.47
2018-11-21T20:50:25.009Z,13.53
2018-11-21T20:52:54.595Z,15.00
2018-11-21T20:55:29.946Z,15.63
2018-11-21T20:57:58.579Z,14.57
2018-11-21T21:00:29.308Z,14.43
2018-11-21T21:02:59.917Z,14.00
2018-11-21T21:05:37.607Z,15.47
2018-11-21T21:08:13.226Z,14.03
2018-11-21T21:10:47.090Z,14.43
2018-11-21T21:13:21.722Z,14.40
2018-11-21T21:15:53.925Z,14.10
2018-11-21T21:18:28.456Z,13.30
2018-11-21T21:21:02.936Z,13.93
